Pongnae — 3FDZ8 — position and weather

sailwx.info

Track history (hours):
 
Tides and Currents Weather Stations Pressure Air Temp Water Temp Dewpoint Dewpoint Depression Visibility Wind Speed Wind Dir Waves Ship Positions

Pongnae

Operator: V Ships Leisure SAM

Last reported at 2015-Aug-30 00:31 UTC. Time now 2015-Aug-30 01:35 UTC.
Position N 22°18' E 114°13'.

Length 171 m; draft 6.7 m.

Type: Passenger vessel. MMSI: 353669000.

Date/timePositionNaut miles runAvg speedWind from/ knotsBaromVisibWave heightAir tempDewpointWater temp
2015-Aug-30 00:31N 22°18' E 114°13'1 0.6
2015-Aug-29 23:33N 22°17' E 114°14'9 8.5
2015-Aug-29 22:32N 22°10' E 114°19'2 0.2
2015-Aug-29 13:31N 22°12' E 114°18'7 7.4
2015-Aug-29 12:33N 22°18' E 114°13'0 0.1
2015-Aug-29 11:33N 22°18' E 114°13'0 0.0
2015-Aug-29 10:33N 22°18' E 114°13'0 0.0
2015-Aug-29 09:33N 22°18' E 114°13'0 0.1
2015-Aug-29 08:33N 22°18' E 114°13'0 0.0
2015-Aug-29 07:33N 22°18' E 114°13'0 0.1
2015-Aug-29 06:33N 22°18' E 114°13'0 0.1
2015-Aug-29 05:33N 22°18' E 114°13'0 0.0
2015-Aug-29 04:33N 22°18' E 114°13'0 0.0
2015-Aug-29 03:33N 22°18' E 114°13'0 0.0
2015-Aug-29 02:33N 22°18' E 114°13'0 0.0
2015-Aug-29 01:33N 22°18' E 114°13'0 0.0
2015-Aug-29 00:33N 22°18' E 114°13'1 0.6
2015-Aug-28 23:33N 22°17' E 114°14'9 8.9
2015-Aug-28 22:31N 22°10' E 114°20'3 0.3
2015-Aug-28 13:19N 22°12' E 114°18'7 9.4
2015-Aug-28 12:33N 22°18' E 114°13'0 0.2
2015-Aug-28 11:33N 22°18' E 114°13'0 0.0
2015-Aug-28 10:33N 22°18' E 114°13'0 0.0
2015-Aug-28 09:33N 22°18' E 114°13'0 0.0
2015-Aug-28 08:34N 22°18' E 114°13'0 0.1
2015-Aug-28 07:33N 22°18' E 114°13'0 0.0
2015-Aug-28 06:33N 22°18' E 114°13'0 0.0
2015-Aug-28 05:33N 22°18' E 114°13'0 0.0
2015-Aug-28 04:34N 22°18' E 114°13'0 0.0
2015-Aug-28 03:33N 22°18' E 114°13'0 0.0
2015-Aug-28 02:33N 22°18' E 114°13'0 0.0
2015-Aug-28 01:33N 22°18' E 114°13'0 0.0
2015-Aug-28 00:33N 22°18' E 114°13'1 1.2
2015-Aug-27 23:33N 22°17' E 114°14'6 0.6
2015-Aug-27 13:33N 22°12' E 114°18'7 7.1
2015-Aug-27 12:31N 22°18' E 114°13'0 0.1
2015-Aug-27 11:31N 22°18' E 114°13'0 0.1
2015-Aug-27 10:31N 22°18' E 114°13'0 0.1
2015-Aug-27 09:31N 22°18' E 114°13'0 0.0
2015-Aug-27 08:31N 22°18' E 114°13'0 0.0
2015-Aug-27 07:31N 22°18' E 114°13'0 0.0
2015-Aug-27 06:31N 22°18' E 114°13'0 0.1
2015-Aug-27 05:28N 22°18' E 114°13'0 0.0
2015-Aug-27 04:31N 22°18' E 114°13'0 0.0
2015-Aug-27 03:31N 22°18' E 114°13'0 0.0
2015-Aug-27 02:31N 22°18' E 114°13'0 0.0
2015-Aug-27 01:31N 22°18' E 114°13'0 0.1
2015-Aug-27 00:31N 22°18' E 114°13'1 1.4
2015-Aug-26 23:33N 22°17' E 114°15'8 8.0
2015-Aug-26 22:33N 22°11' E 114°20'3 0.3
2015-Aug-26 13:17N 22°13' E 114°18'7 9.4
2015-Aug-26 12:33N 22°18' E 114°13'0 0.1
2015-Aug-26 11:33N 22°18' E 114°13'0 0.0
2015-Aug-26 10:33N 22°18' E 114°13'0 0.0
2015-Aug-26 09:33N 22°18' E 114°13'0 0.0
2015-Aug-26 08:33N 22°18' E 114°13'0 0.0
2015-Aug-26 07:33N 22°18' E 114°13'0 0.0
2015-Aug-26 06:33N 22°18' E 114°13'0 0.0
2015-Aug-26 05:33N 22°18' E 114°13'0 0.1
2015-Aug-26 04:33N 22°18' E 114°13'0 0.0
2015-Aug-26 03:33N 22°18' E 114°13'0 0.0
2015-Aug-26 02:33N 22°18' E 114°13'0 0.1
2015-Aug-26 01:33N 22°18' E 114°13'0 0.0
2015-Aug-26 00:33N 22°18' E 114°13'1 0.6
2015-Aug-25 23:33N 22°17' E 114°14'12 1.5
2015-Aug-25 15:23N 22°06' E 114°19'6 3.3
2015-Aug-25 13:26N 22°12' E 114°18'7 8.2
2015-Aug-25 12:33N 22°18' E 114°13'0 0.1
2015-Aug-25 11:33N 22°18' E 114°13'0 0.0
2015-Aug-25 10:33N 22°18' E 114°13'0 0.0
2015-Aug-25 09:33N 22°18' E 114°13'0 0.0
2015-Aug-25 08:33N 22°18' E 114°13'0 0.0
2015-Aug-25 07:33N 22°18' E 114°13'0 0.0
2015-Aug-25 06:33N 22°18' E 114°13'0 0.0
2015-Aug-25 05:32N 22°18' E 114°13'0 0.0
2015-Aug-25 04:32N 22°18' E 114°13'0 0.1
2015-Aug-25 03:29N 22°18' E 114°13'0 0.0
2015-Aug-25 02:32N 22°18' E 114°13'0 0.0
2015-Aug-25 01:32N 22°18' E 114°13'0 0.0
2015-Aug-25 00:32N 22°18' E 114°13'0 0.5
2015-Aug-24 23:33N 22°17' E 114°14'7 0.7
2015-Aug-24 13:28N 22°12' E 114°18'7 7.7
2015-Aug-24 12:31N 22°18' E 114°13'0 0.0
2015-Aug-24 11:31N 22°18' E 114°13'0 0.0
2015-Aug-24 10:28N 22°18' E 114°13'0 0.1
2015-Aug-24 09:31N 22°18' E 114°13'0 0.0
2015-Aug-24 08:31N 22°18' E 114°13'0 0.0
2015-Aug-24 07:31N 22°18' E 114°13'0 0.0
2015-Aug-24 06:31N 22°18' E 114°13'0 0.0
2015-Aug-24 05:31N 22°18' E 114°13'0 0.0
2015-Aug-24 04:28N 22°18' E 114°13'0 0.1
2015-Aug-24 03:31N 22°18' E 114°13'0 0.0
2015-Aug-24 02:31N 22°18' E 114°13'0 0.0
2015-Aug-24 01:33N 22°18' E 114°13'0 0.0
2015-Aug-24 00:33N 22°18' E 114°13'1 0.6
2015-Aug-23 23:33N 22°17' E 114°14'7 0.6
2015-Aug-23 13:16N 22°12' E 114°18'710.1
2015-Aug-23 12:33N 22°18' E 114°13'0 0.1
2015-Aug-23 11:32N 22°18' E 114°13'0 0.0
2015-Aug-23 10:32N 22°18' E 114°13'0 0.0
2015-Aug-23 09:29N 22°18' E 114°13'0 0.0
2015-Aug-23 08:32N 22°18' E 114°13'0 0.1
2015-Aug-23 07:32N 22°18' E 114°13'0 0.0
2015-Aug-23 06:32N 22°18' E 114°13'0 0.1
2015-Aug-23 05:32N 22°18' E 114°13'0 0.1
2015-Aug-23 04:29N 22°18' E 114°13'0 0.1
2015-Aug-23 03:32N 22°18' E 114°13'0 0.0
2015-Aug-23 02:32N 22°18' E 114°13'0 0.0
2015-Aug-23 01:32N 22°18' E 114°13'0 0.0
2015-Aug-23 00:32N 22°18' E 114°13'2 2.0
2015-Aug-22 23:33N 22°17' E 114°15'6 0.6
2015-Aug-22 13:19N 22°12' E 114°19'810.0
2015-Aug-22 12:33N 22°18' E 114°13'0 0.1
2015-Aug-22 11:32N 22°18' E 114°13'0 0.0
2015-Aug-22 10:32N 22°18' E 114°13'0 0.0
2015-Aug-22 09:32N 22°18' E 114°13'0 0.1
2015-Aug-22 08:32N 22°18' E 114°13'0 0.0
2015-Aug-22 07:32N 22°18' E 114°13'0 0.0
2015-Aug-22 06:31N 22°18' E 114°13'0 0.1
2015-Aug-22 05:31N 22°18' E 114°13'0 0.0
2015-Aug-22 04:31N 22°18' E 114°13'0 0.0
2015-Aug-22 03:31N 22°18' E 114°13'0 0.1
2015-Aug-22 02:31N 22°18' E 114°13'0 0.1
2015-Aug-22 01:31N 22°18' E 114°13'0 0.1
2015-Aug-22 00:31N 22°18' E 114°13'3 2.7
2015-Aug-21 23:33N 22°16' E 114°16'8 7.7
2015-Aug-21 22:33N 22°09' E 114°18'3 0.3
2015-Aug-21 13:22N 22°12' E 114°19'8 9.8
2015-Aug-21 12:34N 22°18' E 114°13'0 0.0
2015-Aug-21 11:33N 22°18' E 114°13'0 0.1
2015-Aug-21 10:33N 22°18' E 114°13'0 0.1
2015-Aug-21 09:33N 22°18' E 114°13'0 0.1
2015-Aug-21 08:33N 22°18' E 114°13'0 0.1
2015-Aug-21 07:33N 22°18' E 114°13'0 0.1
2015-Aug-21 06:33N 22°18' E 114°13'0 0.1
2015-Aug-21 05:33N 22°18' E 114°13'0 0.1
2015-Aug-21 04:33N 22°18' E 114°13'0 0.0
2015-Aug-21 03:33N 22°18' E 114°13'0 0.0
2015-Aug-21 02:33N 22°18' E 114°13'0 0.0
2015-Aug-21 01:33N 22°18' E 114°13'0 0.1
2015-Aug-21 00:33N 22°18' E 114°13'1 1.0
2015-Aug-20 23:33N 22°17' E 114°14'7 0.7
2015-Aug-20 13:26N 22°12' E 114°19'8 8.7
2015-Aug-20 12:33N 22°18' E 114°13'0 0.0
2015-Aug-20 11:33N 22°18' E 114°13'0 0.0
2015-Aug-20 10:33N 22°18' E 114°13'0 0.0
2015-Aug-20 09:33N 22°18' E 114°13'0 0.0
2015-Aug-20 08:32N 22°18' E 114°13'0 0.0
2015-Aug-20 07:32N 22°18' E 114°13'0 0.0
2015-Aug-20 06:32N 22°18' E 114°13'0 0.0
2015-Aug-20 05:32N 22°18' E 114°13'0 0.0
2015-Aug-20 04:32N 22°18' E 114°13'0 0.1
2015-Aug-20 03:32N 22°18' E 114°13'0 0.1
2015-Aug-20 02:32N 22°18' E 114°13'0 0.0
2015-Aug-20 01:32N 22°18' E 114°13'0 0.0
2015-Aug-20 00:32N 22°18' E 114°13'  
Track history (hours):
 
Tides and Currents Weather Stations Pressure Air Temp Water Temp Dewpoint Dewpoint Depression Visibility Wind Speed Wind Dir Waves Ship Positions

Pongnae

Operator: V Ships Leisure SAM

Last reported at 2015-Aug-30 00:31 UTC. Time now 2015-Aug-30 01:35 UTC.
Position N 22°18' E 114°13'.

Length 171 m; draft 6.7 m.

Type: Passenger vessel. MMSI: 353669000.

Date/timePositionNaut miles runAvg speedWind from/ knotsBaromVisibWave heightAir tempDewpointWater temp
2015-Aug-30 00:31N 22°18' E 114°13'1 0.6
2015-Aug-29 23:33N 22°17' E 114°14'9 8.5
2015-Aug-29 22:32N 22°10' E 114°19'2 0.2
2015-Aug-29 13:31N 22°12' E 114°18'7 7.4
2015-Aug-29 12:33N 22°18' E 114°13'0 0.1
2015-Aug-29 11:33N 22°18' E 114°13'0 0.0
2015-Aug-29 10:33N 22°18' E 114°13'0 0.0
2015-Aug-29 09:33N 22°18' E 114°13'0 0.1
2015-Aug-29 08:33N 22°18' E 114°13'0 0.0
2015-Aug-29 07:33N 22°18' E 114°13'0 0.1
2015-Aug-29 06:33N 22°18' E 114°13'0 0.1
2015-Aug-29 05:33N 22°18' E 114°13'0 0.0
2015-Aug-29 04:33N 22°18' E 114°13'0 0.0
2015-Aug-29 03:33N 22°18' E 114°13'0 0.0
2015-Aug-29 02:33N 22°18' E 114°13'0 0.0
2015-Aug-29 01:33N 22°18' E 114°13'0 0.0
2015-Aug-29 00:33N 22°18' E 114°13'1 0.6
2015-Aug-28 23:33N 22°17' E 114°14'9 8.9
2015-Aug-28 22:31N 22°10' E 114°20'3 0.3
2015-Aug-28 13:19N 22°12' E 114°18'7 9.4
2015-Aug-28 12:33N 22°18' E 114°13'0 0.2
2015-Aug-28 11:33N 22°18' E 114°13'0 0.0
2015-Aug-28 10:33N 22°18' E 114°13'0 0.0
2015-Aug-28 09:33N 22°18' E 114°13'0 0.0
2015-Aug-28 08:34N 22°18' E 114°13'0 0.1
2015-Aug-28 07:33N 22°18' E 114°13'0 0.0
2015-Aug-28 06:33N 22°18' E 114°13'0 0.0
2015-Aug-28 05:33N 22°18' E 114°13'0 0.0
2015-Aug-28 04:34N 22°18' E 114°13'0 0.0
2015-Aug-28 03:33N 22°18' E 114°13'0 0.0
2015-Aug-28 02:33N 22°18' E 114°13'0 0.0
2015-Aug-28 01:33N 22°18' E 114°13'0 0.0
2015-Aug-28 00:33N 22°18' E 114°13'1 1.2
2015-Aug-27 23:33N 22°17' E 114°14'6 0.6
2015-Aug-27 13:33N 22°12' E 114°18'7 7.1
2015-Aug-27 12:31N 22°18' E 114°13'0 0.1
2015-Aug-27 11:31N 22°18' E 114°13'0 0.1
2015-Aug-27 10:31N 22°18' E 114°13'0 0.1
2015-Aug-27 09:31N 22°18' E 114°13'0 0.0
2015-Aug-27 08:31N 22°18' E 114°13'0 0.0
2015-Aug-27 07:31N 22°18' E 114°13'0 0.0
2015-Aug-27 06:31N 22°18' E 114°13'0 0.1
2015-Aug-27 05:28N 22°18' E 114°13'0 0.0
2015-Aug-27 04:31N 22°18' E 114°13'0 0.0
2015-Aug-27 03:31N 22°18' E 114°13'0 0.0
2015-Aug-27 02:31N 22°18' E 114°13'0 0.0
2015-Aug-27 01:31N 22°18' E 114°13'0 0.1
2015-Aug-27 00:31N 22°18' E 114°13'1 1.4
2015-Aug-26 23:33N 22°17' E 114°15'8 8.0
2015-Aug-26 22:33N 22°11' E 114°20'3 0.3
2015-Aug-26 13:17N 22°13' E 114°18'7 9.4
2015-Aug-26 12:33N 22°18' E 114°13'0 0.1
2015-Aug-26 11:33N 22°18' E 114°13'0 0.0
2015-Aug-26 10:33N 22°18' E 114°13'0 0.0
2015-Aug-26 09:33N 22°18' E 114°13'0 0.0
2015-Aug-26 08:33N 22°18' E 114°13'0 0.0
2015-Aug-26 07:33N 22°18' E 114°13'0 0.0
2015-Aug-26 06:33N 22°18' E 114°13'0 0.0
2015-Aug-26 05:33N 22°18' E 114°13'0 0.1
2015-Aug-26 04:33N 22°18' E 114°13'0 0.0
2015-Aug-26 03:33N 22°18' E 114°13'0 0.0
2015-Aug-26 02:33N 22°18' E 114°13'0 0.1
2015-Aug-26 01:33N 22°18' E 114°13'0 0.0
2015-Aug-26 00:33N 22°18' E 114°13'1 0.6
2015-Aug-25 23:33N 22°17' E 114°14'12 1.5
2015-Aug-25 15:23N 22°06' E 114°19'6 3.3
2015-Aug-25 13:26N 22°12' E 114°18'7 8.2
2015-Aug-25 12:33N 22°18' E 114°13'0 0.1
2015-Aug-25 11:33N 22°18' E 114°13'0 0.0
2015-Aug-25 10:33N 22°18' E 114°13'0 0.0
2015-Aug-25 09:33N 22°18' E 114°13'0 0.0
2015-Aug-25 08:33N 22°18' E 114°13'0 0.0
2015-Aug-25 07:33N 22°18' E 114°13'0 0.0
2015-Aug-25 06:33N 22°18' E 114°13'0 0.0
2015-Aug-25 05:32N 22°18' E 114°13'0 0.0
2015-Aug-25 04:32N 22°18' E 114°13'0 0.1
2015-Aug-25 03:29N 22°18' E 114°13'0 0.0
2015-Aug-25 02:32N 22°18' E 114°13'0 0.0
2015-Aug-25 01:32N 22°18' E 114°13'0 0.0
2015-Aug-25 00:32N 22°18' E 114°13'0 0.5
2015-Aug-24 23:33N 22°17' E 114°14'7 0.7
2015-Aug-24 13:28N 22°12' E 114°18'7 7.7
2015-Aug-24 12:31N 22°18' E 114°13'0 0.0
2015-Aug-24 11:31N 22°18' E 114°13'0 0.0
2015-Aug-24 10:28N 22°18' E 114°13'0 0.1
2015-Aug-24 09:31N 22°18' E 114°13'0 0.0
2015-Aug-24 08:31N 22°18' E 114°13'0 0.0
2015-Aug-24 07:31N 22°18' E 114°13'0 0.0
2015-Aug-24 06:31N 22°18' E 114°13'0 0.0
2015-Aug-24 05:31N 22°18' E 114°13'0 0.0
2015-Aug-24 04:28N 22°18' E 114°13'0 0.1
2015-Aug-24 03:31N 22°18' E 114°13'0 0.0
2015-Aug-24 02:31N 22°18' E 114°13'0 0.0
2015-Aug-24 01:33N 22°18' E 114°13'0 0.0
2015-Aug-24 00:33N 22°18' E 114°13'1 0.6
2015-Aug-23 23:33N 22°17' E 114°14'7 0.6
2015-Aug-23 13:16N 22°12' E 114°18'710.1
2015-Aug-23 12:33N 22°18' E 114°13'0 0.1
2015-Aug-23 11:32N 22°18' E 114°13'0 0.0
2015-Aug-23 10:32N 22°18' E 114°13'0 0.0
2015-Aug-23 09:29N 22°18' E 114°13'0 0.0
2015-Aug-23 08:32N 22°18' E 114°13'0 0.1
2015-Aug-23 07:32N 22°18' E 114°13'0 0.0
2015-Aug-23 06:32N 22°18' E 114°13'0 0.1
2015-Aug-23 05:32N 22°18' E 114°13'0 0.1
2015-Aug-23 04:29N 22°18' E 114°13'0 0.1
2015-Aug-23 03:32N 22°18' E 114°13'0 0.0
2015-Aug-23 02:32N 22°18' E 114°13'0 0.0
2015-Aug-23 01:32N 22°18' E 114°13'0 0.0
2015-Aug-23 00:32N 22°18' E 114°13'2 2.0
2015-Aug-22 23:33N 22°17' E 114°15'6 0.6
2015-Aug-22 13:19N 22°12' E 114°19'810.0
2015-Aug-22 12:33N 22°18' E 114°13'0 0.1
2015-Aug-22 11:32N 22°18' E 114°13'0 0.0
2015-Aug-22 10:32N 22°18' E 114°13'0 0.0
2015-Aug-22 09:32N 22°18' E 114°13'0 0.1
2015-Aug-22 08:32N 22°18' E 114°13'0 0.0
2015-Aug-22 07:32N 22°18' E 114°13'0 0.0
2015-Aug-22 06:31N 22°18' E 114°13'0 0.1
2015-Aug-22 05:31N 22°18' E 114°13'0 0.0
2015-Aug-22 04:31N 22°18' E 114°13'0 0.0
2015-Aug-22 03:31N 22°18' E 114°13'0 0.1
2015-Aug-22 02:31N 22°18' E 114°13'0 0.1
2015-Aug-22 01:31N 22°18' E 114°13'0 0.1
2015-Aug-22 00:31N 22°18' E 114°13'3 2.7
2015-Aug-21 23:33N 22°16' E 114°16'8 7.7
2015-Aug-21 22:33N 22°09' E 114°18'3 0.3
2015-Aug-21 13:22N 22°12' E 114°19'8 9.8
2015-Aug-21 12:34N 22°18' E 114°13'0 0.0
2015-Aug-21 11:33N 22°18' E 114°13'0 0.1
2015-Aug-21 10:33N 22°18' E 114°13'0 0.1
2015-Aug-21 09:33N 22°18' E 114°13'0 0.1
2015-Aug-21 08:33N 22°18' E 114°13'0 0.1
2015-Aug-21 07:33N 22°18' E 114°13'0 0.1
2015-Aug-21 06:33N 22°18' E 114°13'0 0.1
2015-Aug-21 05:33N 22°18' E 114°13'0 0.1
2015-Aug-21 04:33N 22°18' E 114°13'0 0.0
2015-Aug-21 03:33N 22°18' E 114°13'0 0.0
2015-Aug-21 02:33N 22°18' E 114°13'0 0.0
2015-Aug-21 01:33N 22°18' E 114°13'0 0.1
2015-Aug-21 00:33N 22°18' E 114°13'1 1.0
2015-Aug-20 23:33N 22°17' E 114°14'7 0.7
2015-Aug-20 13:26N 22°12' E 114°19'8 8.7
2015-Aug-20 12:33N 22°18' E 114°13'0 0.0
2015-Aug-20 11:33N 22°18' E 114°13'0 0.0
2015-Aug-20 10:33N 22°18' E 114°13'0 0.0
2015-Aug-20 09:33N 22°18' E 114°13'0 0.0
2015-Aug-20 08:32N 22°18' E 114°13'0 0.0
2015-Aug-20 07:32N 22°18' E 114°13'0 0.0
2015-Aug-20 06:32N 22°18' E 114°13'0 0.0
2015-Aug-20 05:32N 22°18' E 114°13'0 0.0
2015-Aug-20 04:32N 22°18' E 114°13'0 0.1
2015-Aug-20 03:32N 22°18' E 114°13'0 0.1
2015-Aug-20 02:32N 22°18' E 114°13'0 0.0
2015-Aug-20 01:32N 22°18' E 114°13'0 0.0
2015-Aug-20 00:32N 22°18' E 114°13'  

Dump ship's entire track history